Time;durP1;ratioP1;P1;durP2;ratioP2;P2;SDS_P1;SDS_P2;PMS_P1;PMS_P2;Temp;Humidity;BMP_temperature;BMP_pressure;BME280_temperature;BME280_humidity;BME280_pressure;Samples;Min_cycle;Max_cycle;Signal;HPM_P1;HPM_P2
2024/04/09 00:00:26;;;;;;;;;0.00;0.00;;;;;16.04;67.69;100387.41;5518702;25;44037;-65
2024/04/09 00:02:51;;;;;;;;;1.00;0.00;;;;;16.05;68.19;100394.50;5504762;25;43867;-65
2024/04/09 00:05:17;;;;;;;;;1.00;0.00;;;;;15.99;67.36;100383.22;5517518;25;43887;-65
2024/04/09 00:07:43;;;;;;;;;1.00;0.00;;;;;16.18;67.53;100409.91;5509628;25;46080;-65
2024/04/09 00:10:08;;;;;;;;;0.00;0.00;;;;;15.99;67.60;100396.69;5502736;25;43899;-65
2024/04/09 00:12:36;;;;;;;;;0.00;0.00;;;;;16.13;66.70;100420.09;5502416;25;44087;-65
2024/04/09 00:15:07;;;;;;;;;0.00;0.00;;;;;15.95;67.08;100395.16;5472839;25;44250;-65
2024/04/09 00:17:39;;;;;;;;;0.00;0.00;;;;;15.84;66.67;100383.22;5503030;25;43855;-65
2024/04/09 00:20:09;;;;;;;;;0.00;0.00;;;;;15.91;66.83;100397.19;5486468;25;43842;-65
2024/04/09 00:22:35;;;;;;;;;0.00;0.00;;;;;16.03;66.89;100427.88;5501680;25;46204;-64
2024/04/09 00:25:02;;;;;;;;;2.75;0.00;;;;;15.81;66.04;100391.47;5515543;25;43995;-65
2024/04/09 00:27:27;;;;;;;;;0.00;0.00;;;;;15.80;66.11;100395.09;5469331;25;44049;-65
2024/04/09 00:29:53;;;;;;;;;0.50;0.00;;;;;15.69;66.10;100393.03;5500684;25;43891;-65
2024/04/09 00:32:18;;;;;;;;;0.00;0.00;;;;;15.68;66.48;100398.50;5502542;25;45245;-64
2024/04/09 00:34:43;;;;;;;;;0.00;0.00;;;;;15.79;66.16;100419.44;5518049;25;44030;-64
2024/04/09 00:37:08;;;;;;;;;0.00;0.00;;;;;15.62;67.28;100397.06;5502837;25;44421;-65
2024/04/09 00:39:34;;;;;;;;;0.00;0.00;;;;;15.65;66.50;100401.38;5500438;25;51269;-65
2024/04/09 00:42:00;;;;;;;;;2.00;1.00;;;;;15.61;64.87;100389.94;5502286;25;43894;-65
2024/04/09 00:44:32;;;;;;;;;1.25;0.00;;;;;15.59;65.62;100412.53;5498096;25;43772;-65
2024/04/09 00:46:57;;;;;;;;;0.75;0.00;;;;;15.55;65.20;100415.38;5501858;25;43942;-65
2024/04/09 00:49:23;;;;;;;;;0.00;0.00;;;;;15.45;64.67;100424.94;5502391;25;43911;-65
2024/04/09 00:51:52;;;;;;;;;0.50;0.00;;;;;15.46;64.65;100432.03;5469893;25;44003;-65
2024/04/09 00:54:18;;;;;;;;;0.75;0.75;;;;;15.42;64.03;100448.44;5502440;25;44395;-64
2024/04/09 00:56:45;;;;;;;;;0.00;0.00;;;;;15.45;63.66;100441.09;5502379;25;44071;-64
2024/04/09 00:59:12;;;;;;;;;0.50;0.00;;;;;15.26;63.07;100418.88;5469687;25;44059;-64
2024/04/09 01:01:40;;;;;;;;;0.75;0.00;;;;;15.22;63.69;100423.56;5502084;25;43986;-65
2024/04/09 01:04:05;;;;;;;;;0.00;0.00;;;;;15.16;63.81;100426.59;5469429;25;44261;-64
2024/04/09 01:06:31;;;;;;;;;1.00;0.00;;;;;15.35;63.49;100466.75;5502395;25;43793;-65
2024/04/09 01:08:57;;;;;;;;;1.75;0.00;;;;;15.07;62.78;100419.03;5502464;25;44239;-65
2024/04/09 01:11:23;;;;;;;;;0.00;0.00;;;;;15.11;62.79;100432.22;5502041;25;44044;-64
2024/04/09 01:13:50;;;;;;;;;0.25;0.00;;;;;15.04;64.00;100424.63;5500493;25;43854;-64
2024/04/09 01:16:15;;;;;;;;;0.00;0.00;;;;;15.21;62.89;100466.69;5469588;25;44132;-65
2024/04/09 01:18:40;;;;;;;;;0.00;0.00;;;;;15.01;63.46;100439.09;5499924;25;43947;-65
2024/04/09 01:21:06;;;;;;;;;0.50;0.00;;;;;15.14;63.43;100466.16;5500045;25;57778;-65
2024/04/09 01:23:31;;;;;;;;;0.00;0.00;;;;;15.01;63.33;100448.00;5499541;25;44008;-65
2024/04/09 01:25:57;;;;;;;;;0.00;0.00;;;;;15.10;63.43;100464.56;5501577;25;44004;-65
2024/04/09 01:28:23;;;;;;;;;0.00;0.00;;;;;15.06;62.78;100473.78;5497435;25;43939;-64
2024/04/09 01:30:51;;;;;;;;;1.50;0.00;;;;;14.92;63.06;100463.78;5500010;25;44268;-64
2024/04/09 01:33:17;;;;;;;;;0.00;0.00;;;;;14.90;63.43;100474.63;5499381;25;43792;-65
2024/04/09 01:35:42;;;;;;;;;0.00;0.00;;;;;14.99;63.15;100494.75;5501668;25;44024;-64
2024/04/09 01:38:08;;;;;;;;;1.00;1.00;;;;;14.95;62.94;100498.53;5515212;25;43946;-64
2024/04/09 01:40:33;;;;;;;;;0.75;0.00;;;;;14.90;62.45;100489.84;5467281;25;46607;-65
2024/04/09 01:42:59;;;;;;;;;1.00;0.00;;;;;14.84;62.93;100491.06;5501446;25;43893;-64
2024/04/09 01:45:24;;;;;;;;;2.00;0.00;;;;;14.80;61.77;100476.94;5501967;25;44188;-64
2024/04/09 01:47:50;;;;;;;;;2.50;0.00;;;;;14.87;61.91;100504.34;5501230;25;43973;-64
2024/04/09 01:50:16;;;;;;;;;2.00;0.00;;;;;14.86;61.57;100512.50;5466331;25;46739;-65
2024/04/09 01:52:42;;;;;;;;;0.00;0.00;;;;;14.72;61.88;100507.88;5501892;25;44104;-64
2024/04/09 01:55:08;;;;;;;;;0.00;0.00;;;;;14.57;62.30;100488.88;5501859;25;43976;-64
2024/04/09 01:57:33;;;;;;;;;1.50;0.00;;;;;14.66;61.93;100502.81;5501589;25;43862;-65
2024/04/09 01:59:59;;;;;;;;;1.00;0.00;;;;;14.55;61.95;100489.91;5501677;25;44412;-64
2024/04/09 02:02:24;;;;;;;;;0.00;0.00;;;;;14.72;62.15;100518.63;5502666;25;43794;-64
2024/04/09 02:04:50;;;;;;;;;0.25;0.00;;;;;14.62;62.06;100508.34;5502835;25;44325;-64
2024/04/09 02:07:15;;;;;;;;;0.00;0.00;;;;;14.53;62.17;100492.66;5500965;25;44071;-64
2024/04/09 02:09:40;;;;;;;;;0.50;0.00;;;;;14.67;61.99;100518.84;5501181;25;44904;-64
2024/04/09 02:12:07;;;;;;;;;3.75;0.50;;;;;14.68;62.02;100530.47;5501244;25;43847;-64
2024/04/09 02:14:34;;;;;;;;;1.75;0.00;;;;;14.62;61.29;100540.56;5499902;25;44024;-64
2024/04/09 02:17:01;;;;;;;;;0.00;0.00;;;;;14.52;61.63;100546.50;5501529;25;43948;-64
2024/04/09 02:19:27;;;;;;;;;0.50;0.00;;;;;14.40;62.37;100526.47;5500945;25;45240;-64
2024/04/09 02:21:52;;;;;;;;;1.50;0.00;;;;;14.55;61.40;100565.09;5500546;25;43958;-65
2024/04/09 02:24:17;;;;;;;;;3.00;0.00;;;;;14.32;62.12;100551.06;5469879;25;43860;-65
2024/04/09 02:26:43;;;;;;;;;3.00;0.00;;;;;14.28;61.88;100544.09;5486314;25;44198;-65
2024/04/09 02:29:09;;;;;;;;;1.00;0.00;;;;;14.49;61.98;100584.25;5506048;25;43962;-65
2024/04/09 02:31:35;;;;;;;;;0.00;0.00;;;;;14.44;61.54;100569.22;5499130;25;44145;-65
2024/04/09 02:34:01;;;;;;;;;0.00;0.00;;;;;14.24;61.93;100540.69;5504564;25;43899;-65
2024/04/09 02:36:26;;;;;;;;;1.00;0.00;;;;;14.39;61.04;100565.91;5512783;25;43859;-64
2024/04/09 02:38:52;;;;;;;;;1.00;0.00;;;;;14.22;61.39;100547.13;5519478;25;43818;-65
2024/04/09 02:41:18;;;;;;;;;1.00;0.00;;;;;14.37;61.58;100600.03;5513965;25;43827;-64
2024/04/09 02:43:43;;;;;;;;;0.00;0.00;;;;;14.20;61.26;100573.16;5504302;25;43916;-65
2024/04/09 02:46:09;;;;;;;;;0.00;0.00;;;;;14.18;61.49;100575.03;5516567;25;44131;-64
2024/04/09 02:48:34;;;;;;;;;1.00;0.00;;;;;14.15;61.20;100600.25;5502181;25;45115;-64
2024/04/09 02:51:03;;;;;;;;;0.75;0.75;;;;;14.13;61.58;100620.03;5503971;25;44006;-64
2024/04/09 02:53:29;;;;;;;;;0.00;0.00;;;;;14.18;61.41;100636.78;5503832;25;43850;-64
2024/04/09 02:56:11;;;;;;;;;3.00;0.00;;;;;14.07;61.08;100638.19;5501723;25;43846;-64
2024/04/09 02:58:36;;;;;;;;;2.50;0.25;;;;;14.07;61.60;100640.88;5503652;25;44096;-65
2024/04/09 03:01:09;;;;;;;;;0.50;0.50;;;;;13.98;61.77;100643.13;5503580;25;43970;-64
2024/04/09 03:03:36;;;;;;;;;0.75;0.00;;;;;14.12;61.51;100666.63;5506157;25;44038;-64
2024/04/09 03:06:09;;;;;;;;;0.00;0.00;;;;;13.93;61.87;100642.47;5473142;25;44502;-65
2024/04/09 03:08:39;;;;;;;;;2.00;1.00;;;;;14.11;61.57;100664.88;5485514;25;43940;-64
2024/04/09 03:11:15;;;;;;;;;1.00;0.75;;;;;13.93;61.26;100639.78;5503326;25;43940;-64
2024/04/09 03:13:42;;;;;;;;;0.50;0.00;;;;;13.87;61.38;100639.16;5503730;25;44026;-64
2024/04/09 03:16:19;;;;;;;;;1.00;0.00;;;;;13.98;61.23;100669.97;5478767;25;44502;-65
2024/04/09 03:18:44;;;;;;;;;0.00;0.00;;;;;13.92;61.24;100663.09;5529935;25;43995;-64
2024/04/09 03:21:10;;;;;;;;;2.00;0.00;;;;;14.00;61.42;100676.13;5526594;25;43969;-65
2024/04/09 03:23:37;;;;;;;;;1.00;0.50;;;;;13.83;62.06;100661.72;5498315;25;43935;-65
2024/04/09 03:26:05;;;;;;;;;0.25;0.00;;;;;13.93;60.99;100694.31;5509823;25;43955;-64
2024/04/09 03:28:31;;;;;;;;;1.00;1.00;;;;;13.74;61.42;100661.28;5501743;25;43952;-64
2024/04/09 03:31:01;;;;;;;;;2.00;0.25;;;;;13.98;61.09;100718.25;5528214;25;43828;-64
2024/04/09 03:33:26;;;;;;;;;0.75;0.00;;;;;13.65;61.03;100663.44;5527383;25;44021;-64
2024/04/09 03:35:53;;;;;;;;;3.75;0.00;;;;;13.98;61.20;100727.19;5528665;25;43901;-64
2024/04/09 03:38:18;;;;;;;;;1.00;0.00;;;;;13.79;60.78;100691.44;5528405;25;44250;-64
2024/04/09 03:41:03;;;;;;;;;0.00;0.00;;;;;13.95;61.01;100732.72;5528723;25;43772;-65
2024/04/09 03:43:29;;;;;;;;;1.00;0.00;;;;;13.78;61.50;100716.50;5523059;25;43959;-65
2024/04/09 03:46:07;;;;;;;;;2.50;0.00;;;;;13.89;61.21;100751.78;5500298;25;43816;-65
2024/04/09 03:48:37;;;;;;;;;0.25;0.00;;;;;13.70;61.56;100725.78;5517498;25;44928;-64
2024/04/09 03:51:04;;;;;;;;;0.50;0.00;;;;;13.63;61.54;100718.06;5532202;25;44217;-64
2024/04/09 03:53:29;;;;;;;;;1.00;0.00;;;;;13.65;61.25;100722.44;5526915;25;43939;-64
2024/04/09 03:55:56;;;;;;;;;1.00;0.00;;;;;13.80;60.92;100745.03;5530450;25;43954;-64
2024/04/09 03:58:22;;;;;;;;;0.00;0.00;;;;;13.76;61.26;100731.81;5525288;25;44896;-64
2024/04/09 04:00:57;;;;;;;;;1.50;0.25;;;;;13.78;60.84;100724.56;5529754;25;43938;-64
2024/04/09 04:03:23;;;;;;;;;2.00;0.00;;;;;13.63;61.30;100718.06;5527652;25;44024;-64
2024/04/09 04:05:50;;;;;;;;;0.00;0.00;;;;;13.67;61.04;100728.59;5508616;25;44219;-64
2024/04/09 04:08:15;;;;;;;;;1.50;0.25;;;;;13.69;61.02;100756.22;5533869;25;43855;-64
2024/04/09 04:10:41;;;;;;;;;1.50;0.25;;;;;13.49;61.39;100726.75;5534331;25;44199;-64
2024/04/09 04:13:08;;;;;;;;;2.50;0.50;;;;;13.42;61.88;100723.47;5492348;25;47348;-64
2024/04/09 04:15:34;;;;;;;;;2.25;0.50;;;;;13.42;61.80;100714.56;5502737;25;44014;-64
2024/04/09 04:17:59;;;;;;;;;0.00;0.00;;;;;13.60;61.76;100732.50;5467602;25;45954;-64
2024/04/09 04:20:24;;;;;;;;;0.00;0.00;;;;;13.39;62.07;100706.66;5502843;25;43869;-64
2024/04/09 04:22:51;;;;;;;;;0.00;0.00;;;;;13.40;61.71;100716.44;5502090;25;59868;-64
2024/04/09 04:25:16;;;;;;;;;0.75;0.75;;;;;13.49;62.03;100726.75;5482211;25;44568;-64
2024/04/09 04:27:44;;;;;;;;;1.50;0.00;;;;;13.43;61.79;100708.25;5507947;25;44977;-65
2024/04/09 04:30:09;;;;;;;;;0.00;0.00;;;;;13.35;62.13;100703.25;5502843;25;44277;-64
2024/04/09 04:32:34;;;;;;;;;1.00;1.00;;;;;13.62;62.00;100753.91;5470272;25;44329;-64
2024/04/09 04:35:00;;;;;;;;;1.00;0.00;;;;;13.59;62.50;100746.00;5499906;25;44140;-64
2024/04/09 04:37:25;;;;;;;;;0.75;0.00;;;;;13.47;62.17;100736.69;5502423;25;48325;-64
2024/04/09 04:39:50;;;;;;;;;0.25;0.25;;;;;13.46;62.11;100742.97;5502609;25;43994;-64
2024/04/09 04:42:16;;;;;;;;;0.00;0.00;;;;;13.15;62.17;100690.69;5502473;25;43914;-65
2024/04/09 04:44:42;;;;;;;;;1.00;1.00;;;;;13.45;62.56;100751.97;5499096;25;44343;-64
2024/04/09 04:47:08;;;;;;;;;3.25;0.00;;;;;13.21;62.23;100713.66;5499035;25;43883;-64
2024/04/09 04:49:34;;;;;;;;;0.50;0.00;;;;;13.41;62.12;100729.75;5496685;25;44112;-65
2024/04/09 04:51:59;;;;;;;;;0.00;0.00;;;;;13.37;62.07;100730.84;5501957;25;44002;-64
2024/04/09 04:54:25;;;;;;;;;1.00;0.00;;;;;13.35;61.85;100735.41;5501663;25;44265;-64
2024/04/09 04:56:50;;;;;;;;;0.00;0.00;;;;;13.09;62.46;100715.06;5502207;25;44211;-65
2024/04/09 04:59:15;;;;;;;;;1.00;0.00;;;;;13.29;62.44;100747.22;5502170;25;43890;-64
2024/04/09 05:01:41;;;;;;;;;1.75;0.00;;;;;13.28;62.62;100736.56;5499924;25;44279;-65
2024/04/09 05:04:06;;;;;;;;;1.75;0.50;;;;;13.16;62.06;100727.25;5471798;25;44572;-65
2024/04/09 05:06:31;;;;;;;;;1.00;1.00;;;;;13.18;62.64;100736.13;5492384;25;49122;-64
2024/04/09 05:08:57;;;;;;;;;1.00;1.00;;;;;13.14;62.45;100735.38;5499771;25;44064;-65
2024/04/09 05:11:22;;;;;;;;;1.00;0.00;;;;;13.14;62.47;100739.88;5501597;25;46734;-64
2024/04/09 05:13:48;;;;;;;;;0.25;0.25;;;;;13.25;62.33;100767.09;5501626;25;43852;-65
2024/04/09 05:16:13;;;;;;;;;1.00;0.00;;;;;13.26;62.08;100774.16;5502838;25;44057;-64
2024/04/09 05:18:38;;;;;;;;;3.00;1.25;;;;;13.06;62.49;100748.22;5483978;25;44636;-64
2024/04/09 05:21:04;;;;;;;;;0.00;0.00;;;;;13.17;62.65;100766.53;5499975;25;44212;-64
2024/04/09 05:23:30;;;;;;;;;1.00;0.00;;;;;13.22;61.98;100794.00;5501568;25;44000;-64
2024/04/09 05:25:56;;;;;;;;;0.00;0.00;;;;;13.22;62.06;100793.16;5501497;25;45722;-64
2024/04/09 05:28:21;;;;;;;;;0.00;0.00;;;;;13.19;62.50;100793.28;5504878;25;44472;-64
2024/04/09 05:30:46;;;;;;;;;0.00;0.00;;;;;13.05;62.43;100772.44;5499724;25;43889;-64
2024/04/09 05:33:12;;;;;;;;;4.50;0.00;;;;;13.10;62.31;100775.78;5499747;25;44093;-65
2024/04/09 05:35:37;;;;;;;;;0.75;0.00;;;;;13.01;62.95;100770.81;5500932;25;45358;-64
2024/04/09 05:38:03;;;;;;;;;2.00;1.00;;;;;13.15;62.18;100797.91;5501355;25;43815;-64
2024/04/09 05:40:28;;;;;;;;;1.50;1.00;;;;;13.16;62.45;100802.31;5501436;25;43854;-65
2024/04/09 05:42:53;;;;;;;;;1.00;1.00;;;;;12.85;62.47;100762.56;5501256;25;43942;-64
2024/04/09 05:45:20;;;;;;;;;1.75;0.00;;;;;13.05;62.57;100807.25;5501892;25;43970;-65
2024/04/09 05:47:45;;;;;;;;;2.00;1.00;;;;;13.05;63.05;100805.44;5499041;25;44272;-64
2024/04/09 05:50:11;;;;;;;;;1.50;0.75;;;;;13.00;62.35;100802.09;5502266;25;44177;-64
2024/04/09 05:52:36;;;;;;;;;1.00;0.00;;;;;12.93;62.75;100795.22;5478008;25;44595;-64
2024/04/09 05:55:02;;;;;;;;;0.50;0.50;;;;;12.95;62.41;100801.41;5500878;25;51394;-64
2024/04/09 05:57:32;;;;;;;;;0.00;0.00;;;;;13.03;62.27;100819.84;5468602;25;44348;-65
2024/04/09 05:59:58;;;;;;;;;1.00;1.00;;;;;13.00;62.24;100817.28;5500964;25;44117;-64
2024/04/09 06:02:24;;;;;;;;;2.00;0.00;;;;;13.14;62.09;100860.47;5483536;25;43944;-64
2024/04/09 06:04:49;;;;;;;;;1.25;1.00;;;;;13.10;62.57;100845.47;5520499;25;44008;-65
2024/04/09 06:07:15;;;;;;;;;0.50;0.00;;;;;12.87;62.65;100807.06;5512327;25;44313;-64
2024/04/09 06:09:41;;;;;;;;;1.00;0.00;;;;;12.97;62.60;100829.88;5497958;25;44556;-64
2024/04/09 06:12:06;;;;;;;;;3.00;0.00;;;;;12.92;62.34;100817.63;5465009;25;44002;-64
2024/04/09 06:14:32;;;;;;;;;1.00;1.00;;;;;12.85;62.41;100830.38;5497459;25;44364;-64
2024/04/09 06:16:57;;;;;;;;;3.75;1.00;;;;;12.91;62.02;100826.56;5490215;25;43787;-64
2024/04/09 06:19:22;;;;;;;;;1.50;0.00;;;;;12.96;61.53;100852.25;5472955;25;44003;-64
2024/04/09 06:21:48;;;;;;;;;1.00;1.00;;;;;12.75;61.26;100821.84;5513062;25;44007;-67
2024/04/09 06:24:13;;;;;;;;;0.00;0.00;;;;;12.96;61.72;100860.31;5497312;25;43998;-68
2024/04/09 06:26:38;;;;;;;;;2.00;1.00;;;;;12.98;61.56;100879.84;5504254;25;43899;-68
2024/04/09 06:29:04;;;;;;;;;0.00;0.00;;;;;12.78;62.45;100853.00;5488554;25;43973;-68
2024/04/09 06:31:30;;;;;;;;;2.50;0.25;;;;;12.75;62.20;100866.50;5468095;25;44038;-68
2024/04/09 06:33:56;;;;;;;;;2.25;0.50;;;;;12.85;62.15;100883.97;5500314;25;53824;-69
2024/04/09 06:36:21;;;;;;;;;2.75;0.50;;;;;12.77;62.15;100876.22;5500761;25;43910;-68
2024/04/09 06:38:46;;;;;;;;;1.00;0.50;;;;;12.88;62.01;100888.31;5500693;25;43860;-68
2024/04/09 06:41:12;;;;;;;;;1.00;1.00;;;;;12.91;61.82;100893.56;5499864;25;43979;-65
2024/04/09 06:43:37;;;;;;;;;0.00;0.00;;;;;12.72;61.24;100862.13;5497520;25;43857;-65
2024/04/09 06:46:03;;;;;;;;;0.50;0.25;;;;;12.73;61.43;100863.91;5519147;25;43935;-65
2024/04/09 06:48:28;;;;;;;;;1.75;0.75;;;;;12.68;61.58;100859.63;5467253;25;43993;-64
2024/04/09 06:50:53;;;;;;;;;0.75;0.00;;;;;12.92;62.16;100914.06;5502215;25;48033;-64
2024/04/09 06:53:19;;;;;;;;;1.50;0.00;;;;;12.82;61.86;100904.66;5485691;25;43952;-64
2024/04/09 06:55:44;;;;;;;;;1.50;0.00;;;;;12.64;61.61;100882.97;5497841;25;43944;-64
2024/04/09 06:58:11;;;;;;;;;0.00;0.00;;;;;12.68;61.48;100892.66;5512111;25;43828;-64
2024/04/09 07:00:37;;;;;;;;;1.25;0.75;;;;;12.79;61.80;100916.34;5469839;25;44973;-64
2024/04/09 07:24:18;;;;;;;;;1.00;1.00;;;;;12.47;61.81;100941.69;5497631;25;43996;-63
2024/04/09 07:26:43;;;;;;;;;0.00;0.00;;;;;12.47;61.98;100950.56;5479726;26;43915;-64
2024/04/09 07:29:09;;;;;;;;;0.00;0.00;;;;;12.55;61.59;100969.03;5467593;25;44041;-63
2024/04/09 07:31:34;;;;;;;;;0.00;0.00;;;;;12.41;62.31;100929.38;5455936;25;44011;-63
2024/04/09 07:34:00;;;;;;;;;0.00;0.00;;;;;12.66;62.01;100982.88;5460372;26;44284;-63
2024/04/09 07:36:25;;;;;;;;;2.00;0.75;;;;;12.62;61.81;100964.34;5470987;25;43774;-63
2024/04/09 07:38:52;;;;;;;;;0.50;0.50;;;;;12.73;61.17;100971.03;5450018;26;43969;-63
2024/04/09 07:41:19;;;;;;;;;1.75;0.50;;;;;12.75;61.44;100982.56;5458851;26;44243;-63
2024/04/09 07:43:44;;;;;;;;;2.75;1.00;;;;;12.91;61.19;101006.97;5462115;25;44364;-63
2024/04/09 07:46:09;;;;;;;;;0.00;0.00;;;;;12.70;60.38;100968.47;5468635;25;43932;-63
2024/04/09 07:48:35;;;;;;;;;0.75;0.00;;;;;12.82;60.77;100988.56;5463846;25;44003;-63
2024/04/09 07:51:00;;;;;;;;;2.50;1.00;;;;;12.85;60.24;100987.59;5469485;25;43961;-63
2024/04/09 07:53:26;;;;;;;;;0.00;0.00;;;;;12.76;60.05;100968.25;5472129;26;45179;-63
2024/04/09 07:55:52;;;;;;;;;0.75;0.00;;;;;12.87;60.30;100983.88;5454848;26;44217;-64
2024/04/09 07:58:17;;;;;;;;;0.00;0.00;;;;;12.74;60.27;100967.41;5451849;26;43921;-63
2024/04/09 08:00:44;;;;;;;;;0.00;0.00;;;;;12.95;60.55;100997.88;5464700;26;44023;-63
2024/04/09 08:03:10;;;;;;;;;3.00;0.00;;;;;13.03;61.21;101000.28;5471912;26;45792;-64
2024/04/09 08:05:36;;;;;;;;;0.25;0.25;;;;;13.08;60.73;101016.16;5478343;25;44278;-64
2024/04/09 08:08:01;;;;;;;;;0.00;0.00;;;;;12.96;60.89;100988.91;5458101;25;44282;-63
2024/04/09 08:10:27;;;;;;;;;2.00;1.00;;;;;13.09;60.11;101015.22;5478983;25;44078;-63
2024/04/09 08:12:57;;;;;;;;;0.00;0.00;;;;;12.95;59.82;100991.66;5470793;26;45807;-63
2024/04/09 08:15:23;;;;;;;;;0.25;0.25;;;;;12.99;59.63;100998.63;5465859;25;43864;-63
2024/04/09 08:17:48;;;;;;;;;3.25;0.25;;;;;13.01;59.77;100995.88;5460157;25;44009;-63
2024/04/09 08:20:20;;;;;;;;;1.00;0.25;;;;;13.10;59.12;101009.81;5464999;25;44011;-64
2024/04/09 08:22:50;;;;;;;;;1.00;0.00;;;;;13.22;59.91;101037.94;5453493;25;46088;-64
2024/04/09 08:25:19;;;;;;;;;2.00;0.00;;;;;13.21;60.02;101038.00;5463300;25;44079;-63
2024/04/09 08:27:45;;;;;;;;;0.00;0.00;;;;;13.23;59.36;101036.13;5455797;26;44018;-63
2024/04/09 08:30:14;;;;;;;;;0.00;0.00;;;;;13.29;58.77;101065.38;5453907;26;43991;-63
2024/04/09 08:32:41;;;;;;;;;2.00;0.00;;;;;13.12;59.13;101010.63;5453505;25;45318;-63
2024/04/09 08:35:07;;;;;;;;;1.00;0.00;;;;;13.09;58.72;101005.38;5461416;26;44049;-63
2024/04/09 08:37:33;;;;;;;;;0.00;0.00;;;;;13.25;59.05;101034.28;5455044;26;44028;-63
2024/04/09 08:39:58;;;;;;;;;2.00;0.00;;;;;13.20;59.08;101025.53;5444045;26;44395;-63
2024/04/09 08:42:27;;;;;;;;;0.00;0.00;;;;;13.36;59.17;101048.16;5452589;25;44331;-63
2024/04/09 08:44:55;;;;;;;;;0.25;0.00;;;;;13.34;58.65;101036.63;5440089;26;43887;-64
2024/04/09 08:47:22;;;;;;;;;0.00;0.00;;;;;13.42;59.25;101050.59;5459766;26;44253;-64
2024/04/09 08:49:49;;;;;;;;;1.00;1.00;;;;;13.42;59.04;101055.97;5444706;25;44008;-63
2024/04/09 08:52:18;;;;;;;;;1.50;0.00;;;;;13.22;58.82;101012.97;5464475;25;44961;-63
2024/04/09 08:54:43;;;;;;;;;1.00;1.00;;;;;13.38;58.51;101042.72;5439982;26;44139;-63
2024/04/09 08:57:08;;;;;;;;;0.50;0.00;;;;;13.30;58.52;101030.47;5463721;25;44031;-63
2024/04/09 08:59:35;;;;;;;;;0.00;0.00;;;;;13.40;58.73;101040.88;5462526;26;44071;-63
2024/04/09 09:02:09;;;;;;;;;0.00;0.00;;;;;13.47;58.06;101045.06;5437585;26;46603;-63
2024/04/09 09:04:36;;;;;;;;;0.00;0.00;;;;;13.51;58.17;101058.31;5461515;25;43803;-64
2024/04/09 09:07:04;;;;;;;;;0.50;0.00;;;;;13.70;58.45;101092.44;5440569;26;44078;-63
2024/04/09 09:09:29;;;;;;;;;5.50;4.00;;;;;13.53;58.06;101058.22;5435376;26;43899;-63
2024/04/09 09:12:05;;;;;;;;;4.25;3.50;;;;;13.52;58.58;101068.06;5448633;26;44788;-63
2024/04/09 09:14:30;;;;;;;;;1.75;0.25;;;;;13.53;58.58;101077.00;5440293;25;44171;-63
2024/04/09 09:17:01;;;;;;;;;2.00;0.00;;;;;13.68;58.08;101094.28;5454357;25;43977;-63
2024/04/09 09:19:30;;;;;;;;;0.00;0.00;;;;;13.75;58.10;101114.59;5442538;25;44149;-63
2024/04/09 09:21:56;;;;;;;;;0.75;0.00;;;;;13.69;57.50;101104.09;5442013;26;44313;-64
2024/04/09 09:24:21;;;;;;;;;1.00;1.00;;;;;13.66;58.05;101088.13;5449612;26;44060;-63
2024/04/09 09:26:48;;;;;;;;;2.00;0.00;;;;;13.58;57.86;101076.81;5438884;26;43986;-63
2024/04/09 09:29:14;;;;;;;;;1.00;1.00;;;;;13.68;57.70;101105.00;5435966;26;44232;-63
2024/04/09 09:31:39;;;;;;;;;2.25;0.00;;;;;13.79;57.99;101118.03;5449598;26;44244;-63
2024/04/09 09:34:08;;;;;;;;;1.00;0.75;;;;;13.75;57.66;101116.38;5440340;26;43942;-63
2024/04/09 09:36:36;;;;;;;;;1.00;1.00;;;;;13.79;57.40;101121.56;5449092;26;43925;-64
2024/04/09 09:39:02;;;;;;;;;0.50;0.50;;;;;13.84;57.64;101121.41;5443069;25;44195;-63
2024/04/09 09:41:31;;;;;;;;;1.00;1.00;;;;;13.65;57.62;101092.63;5444728;26;44977;-63
2024/04/09 09:43:56;;;;;;;;;0.00;0.00;;;;;13.83;57.34;101119.63;5455173;26;43818;-63
2024/04/09 09:46:23;;;;;;;;;1.00;1.00;;;;;13.86;57.36;101130.25;5447040;26;44280;-63
2024/04/09 09:48:53;;;;;;;;;0.00;0.00;;;;;13.78;57.27;101110.91;5443200;26;44321;-63
2024/04/09 09:51:20;;;;;;;;;0.50;0.00;;;;;13.91;56.98;101130.94;5443079;25;45100;-64
2024/04/09 09:53:46;;;;;;;;;0.00;0.00;;;;;13.85;57.67;101129.38;5444699;26;44179;-66
2024/04/09 09:56:14;;;;;;;;;0.00;0.00;;;;;13.79;57.44;101112.66;5456868;26;44048;-64
2024/04/09 09:58:41;;;;;;;;;0.00;0.00;;;;;13.80;57.32;101106.34;5435001;26;44355;-64
2024/04/09 10:01:10;;;;;;;;;0.00;0.00;;;;;14.02;56.92;101147.50;5441537;26;44092;-64
2024/04/09 10:03:35;;;;;;;;;0.25;0.25;;;;;13.85;56.62;101134.75;5444977;25;43896;-64
2024/04/09 10:06:01;;;;;;;;;1.00;0.00;;;;;14.01;56.09;101159.16;5431358;26;44321;-64
2024/04/09 10:08:27;;;;;;;;;0.00;0.00;;;;;14.03;55.82;101178.78;5461975;25;43915;-64
2024/04/09 10:10:53;;;;;;;;;1.00;0.00;;;;;13.96;55.68;101157.59;5438029;25;46085;-64
2024/04/09 10:13:21;;;;;;;;;2.50;0.50;;;;;13.96;56.01;101161.16;5443949;26;43879;-64
2024/04/09 10:15:47;;;;;;;;;1.00;0.75;;;;;13.99;55.63;101173.59;5456655;25;43982;-64
2024/04/09 10:18:30;;;;;;;;;0.75;0.75;;;;;14.04;55.90;101179.63;5461469;25;44041;-64
2024/04/09 10:20:56;;;;;;;;;2.00;1.00;;;;;13.80;56.37;101143.91;5447814;26;44017;-64
2024/04/09 10:23:22;;;;;;;;;2.00;0.00;;;;;13.95;56.07;101164.78;5458581;26;44660;-64
2024/04/09 10:25:48;;;;;;;;;1.75;0.00;;;;;13.87;55.89;101142.75;5434807;25;43904;-64
2024/04/09 10:28:27;;;;;;;;;1.00;1.00;;;;;13.91;56.59;101155.09;5434429;26;44059;-63
2024/04/09 10:30:52;;;;;;;;;0.25;0.25;;;;;14.02;56.78;101160.03;5444073;26;45346;-63
2024/04/09 10:33:27;;;;;;;;;2.00;0.75;;;;;14.01;55.63;101150.22;5465848;25;43964;-63
2024/04/09 10:35:56;;;;;;;;;1.00;1.00;;;;;14.19;56.32;101181.69;5450889;25;44051;-63
2024/04/09 10:38:24;;;;;;;;;2.50;0.00;;;;;14.15;55.51;101180.09;5446350;26;44622;-63
2024/04/09 10:40:49;;;;;;;;;1.50;0.25;;;;;14.18;56.07;101152.22;5440476;26;44977;-63
2024/04/09 10:43:15;;;;;;;;;2.25;0.00;;;;;14.07;56.31;101150.88;5450420;26;44057;-63
2024/04/09 10:45:41;;;;;;;;;2.75;1.00;;;;;14.09;55.68;101159.72;5449023;26;44652;-63
2024/04/09 10:48:07;;;;;;;;;0.00;0.00;;;;;14.24;55.74;101198.50;5443270;26;44034;-63
2024/04/09 10:50:33;;;;;;;;;2.00;1.00;;;;;14.13;56.08;101173.88;5455181;26;44018;-63
2024/04/09 10:52:59;;;;;;;;;3.50;1.00;;;;;14.33;55.64;101209.81;5464177;25;44215;-63
2024/04/09 10:55:24;;;;;;;;;2.75;1.75;;;;;14.27;56.27;101192.16;5447681;25;44032;-63
2024/04/09 10:57:51;;;;;;;;;2.75;1.00;;;;;14.32;55.06;101211.63;5436811;25;44843;-63
2024/04/09 11:00:17;;;;;;;;;1.00;1.00;;;;;14.29;55.32;101200.16;5445444;26;44084;-63
2024/04/09 11:02:43;;;;;;;;;1.25;0.75;;;;;14.03;55.68;101165.34;5429265;26;44201;-63
2024/04/09 11:05:10;;;;;;;;;0.00;0.00;;;;;14.15;55.45;101169.34;5450697;25;43931;-63
2024/04/09 11:07:40;;;;;;;;;3.75;1.00;;;;;14.19;55.36;101176.34;5435726;26;44204;-63
2024/04/09 11:10:07;;;;;;;;;2.00;0.25;;;;;14.42;55.79;101212.13;5437175;26;44092;-63
2024/04/09 11:12:36;;;;;;;;;1.00;1.00;;;;;14.35;55.14;101192.72;5453138;26;44345;-63
2024/04/09 11:15:03;;;;;;;;;1.00;1.00;;;;;14.30;55.98;101207.25;5433872;26;43899;-63
2024/04/09 11:17:29;;;;;;;;;1.00;0.00;;;;;14.41;57.55;101245.28;5446154;25;43937;-63
2024/04/09 11:20:14;;;;;;;;;1.50;0.50;;;;;14.46;59.88;101265.63;5455396;25;45084;-63
2024/04/09 11:22:42;;;;;;;;;0.00;0.00;;;;;14.36;61.16;101242.78;5451253;26;43876;-63
2024/04/09 11:25:22;;;;;;;;;2.00;0.00;;;;;14.34;61.22;101241.09;5461579;26;64666;-63
2024/04/09 11:27:52;;;;;;;;;1.25;0.75;;;;;14.25;61.78;101245.91;5458891;25;44014;-63
2024/04/09 11:30:25;;;;;;;;;1.00;0.00;;;;;14.28;62.48;101236.84;5443540;25;44928;-63
2024/04/09 11:32:54;;;;;;;;;0.50;0.50;;;;;14.34;63.29;101250.03;5461486;25;43985;-63
2024/04/09 11:35:24;;;;;;;;;2.00;0.00;;;;;14.41;63.26;101272.16;5449783;25;44285;-63
2024/04/09 11:37:52;;;;;;;;;1.50;1.50;;;;;14.37;63.56;101259.78;5447481;26;44283;-63
2024/04/09 11:40:20;;;;;;;;;2.00;0.50;;;;;14.38;62.34;101248.09;5443368;26;45000;-63
2024/04/09 11:42:47;;;;;;;;;0.25;0.25;;;;;14.20;62.69;101210.31;5451119;25;43904;-63